.
WxDataArchive / Data Records for 2008-08-28
2008-08-27 August 2008 2008-08-29

Data Records for Thursday, 28 August 2008

Time	Temp	Chill	HIndex	Humid	Dewpt	 Wind 	HiWind	WindDir	Rain 	Barom 
-----	----	-----	------	-----	-----	------	------	-------	-----	----- 
00:00	64.3	64.3	64.3	88	60.7	0	2	90	0.00	29.844 
00:05	64.2	64.2	64.2	88	60.6	0	1	90	0.00	29.842 
00:10	64.2	64.2	64.2	88	60.6	0	2	90	0.00	29.842 
00:15	64.0	64.0	64.0	88	60.4	0	1	90	0.00	29.840 
00:20	63.9	63.9	63.9	89	60.6	0	1	90	0.00	29.838 
00:25	63.9	63.9	63.9	89	60.6	0	0	---	0.00	29.837 
00:30	63.7	63.7	63.7	89	60.4	0	0	---	0.00	29.838 
00:35	63.7	63.7	63.7	89	60.4	0	0	---	0.00	29.838 
00:40	63.7	63.7	63.7	89	60.4	0	0	---	0.00	29.838 
00:45	63.7	63.7	63.7	90	60.7	0	0	---	0.00	29.838 
00:50	63.9	63.9	63.9	90	60.9	0	0	---	0.00	29.837 
00:55	63.9	63.9	63.9	90	60.9	0	1	90	0.00	29.837 
01:00	64.0	64.0	64.0	90	61.0	0	0	---	0.00	29.836 
01:05	64.2	64.2	64.2	90	61.2	0	0	---	0.00	29.836 
01:10	64.2	64.2	64.2	90	61.2	0	0	---	0.00	29.834 
01:15	64.3	64.3	64.3	90	61.3	0	0	---	0.00	29.832 
01:20	64.5	64.5	64.5	90	61.5	0	0	---	0.00	29.830 
01:25	64.5	64.5	64.5	90	61.5	0	2	90	0.00	29.827 
01:30	64.7	64.7	64.7	89	61.4	0	2	90	0.00	29.825 
01:35	64.7	64.7	64.7	89	61.4	0	1	90	0.00	29.824 
01:40	64.8	64.8	64.8	89	61.5	0	3	90	0.00	29.823 
01:45	65.0	65.0	65.0	89	61.7	0	3	90	0.00	29.823 
01:50	65.0	65.0	65.0	88	61.4	0	2	90	0.00	29.821 
01:55	65.2	65.2	65.2	88	61.6	0	2	90	0.00	29.818 
02:00	65.2	65.2	65.2	88	61.6	1	3	112	0.00	29.814 
02:05	65.3	65.3	65.3	87	61.3	0	3	112	0.00	29.814 
02:10	65.3	65.3	65.3	87	61.3	0	3	112	0.00	29.811 
02:15	65.3	65.3	65.3	87	61.3	0	2	112	0.00	29.809 
02:20	65.3	65.3	65.3	87	61.3	1	4	112	0.00	29.808 
02:25	65.3	65.3	65.3	87	61.3	0	2	90	0.00	29.806 
02:30	65.3	65.3	65.3	87	61.3	1	3	90	0.00	29.805 
02:35	65.2	65.2	65.2	87	61.2	2	6	112	0.00	29.805 
02:40	65.2	65.2	65.2	87	61.2	1	4	112	0.00	29.805 
02:45	65.2	65.2	65.2	87	61.2	1	5	90	0.00	29.805 
02:50	65.0	65.0	65.0	88	61.4	1	4	90	0.00	29.805 
02:55	65.0	65.0	65.0	88	61.4	1	3	112	0.00	29.804 
03:00	64.8	64.8	64.8	88	61.2	2	5	90	0.00	29.802 
03:05	64.7	64.7	64.7	89	61.4	1	5	90	0.00	29.802 
03:10	64.5	64.5	64.5	89	61.2	1	3	90	0.00	29.803 
03:15	64.3	64.3	64.3	90	61.3	0	2	90	0.00	29.802 
03:20	64.2	64.2	64.2	90	61.2	1	3	90	0.00	29.799 
03:25	64.0	64.0	64.0	90	61.0	1	3	68	0.00	29.796 
03:30	63.9	63.9	63.9	91	61.2	0	2	68	0.00	29.797 
03:35	63.9	63.9	63.9	91	61.2	0	3	68	0.00	29.798 
03:40	63.7	63.7	63.7	91	61.0	1	2	68	0.00	29.797 
03:45	63.5	63.5	63.5	91	60.8	0	2	68	0.00	29.794 
03:50	63.5	63.5	63.5	91	60.8	1	3	68	0.00	29.793 
03:55	63.5	63.5	63.5	92	61.1	1	2	68	0.00	29.792 
04:00	63.4	63.4	63.4	92	61.0	0	2	68	0.00	29.792 
04:05	63.4	63.4	63.4	92	61.0	0	2	68	0.00	29.793 
04:10	63.2	63.2	63.2	93	61.1	0	2	68	0.00	29.795 
04:15	63.2	63.2	63.2	93	61.1	0	2	68	0.00	29.795 
04:20	63.2	63.2	63.2	93	61.1	1	3	90	0.00	29.794 
04:25	63.2	63.2	63.2	93	61.1	0	2	90	0.00	29.796 
04:30	63.2	63.2	63.2	94	61.4	0	2	90	0.00	29.802 
04:35	63.2	63.2	63.2	94	61.4	0	1	90	0.00	29.808 
04:40	63.2	63.2	63.2	94	61.4	0	0	---	0.00	29.808 
04:45	63.2	63.2	63.2	94	61.4	0	2	90	0.00	29.807 
04:50	63.1	63.1	63.1	93	61.0	1	3	90	0.00	29.807 
04:55	63.1	63.1	63.1	92	60.7	0	2	90	0.00	29.807 
05:00	63.2	63.2	63.2	92	60.8	0	2	90	0.00	29.811 
05:05	63.4	63.4	63.4	92	61.0	0	0	---	0.00	29.819 
05:10	63.4	63.4	63.4	92	61.0	0	0	---	0.00	29.824 
05:15	63.5	63.5	63.5	91	60.8	0	0	---	0.00	29.826 
05:20	63.5	63.5	63.5	91	60.8	0	0	---	0.00	29.828 
05:25	63.4	63.4	63.4	90	60.4	0	0	---	0.00	29.832 
05:30	63.5	63.5	63.5	90	60.5	0	1	90	0.00	29.840 
05:35	63.5	63.5	63.5	89	60.2	0	0	---	0.00	29.842 
05:40	63.7	63.7	63.7	89	60.4	0	0	---	0.00	29.842 
05:45	63.7	63.7	63.7	89	60.4	0	0	---	0.00	29.843 
05:50	63.7	63.7	63.7	88	60.1	0	0	---	0.00	29.846 
05:55	63.7	63.7	63.7	88	60.1	0	0	---	0.00	29.852 
06:00	63.9	63.9	63.9	88	60.3	0	0	---	0.00	29.853 
06:05	63.9	63.9	63.9	88	60.3	0	0	---	0.00	29.855 
06:10	63.9	63.9	63.9	88	60.3	0	1	90	0.00	29.852 
06:15	63.9	63.9	63.9	88	60.3	0	0	---	0.00	29.848 
06:20	63.9	63.9	63.9	88	60.3	0	0	---	0.00	29.849 
06:25	63.9	63.9	63.9	88	60.3	0	0	---	0.00	29.850 
06:30	63.9	63.9	63.9	88	60.3	0	0	---	0.00	29.845 
06:35	63.9	63.9	63.9	88	60.3	0	0	---	0.00	29.843 
06:40	64.0	64.0	64.0	88	60.4	0	0	---	0.00	29.843 
06:45	64.0	64.0	64.0	87	60.0	0	0	---	0.00	29.840 
06:50	64.0	64.0	64.0	87	60.0	0	0	---	0.00	29.839 
06:55	64.0	64.0	64.0	87	60.0	0	1	90	0.00	29.833 
07:00	64.2	64.2	64.2	87	60.2	0	2	90	0.00	29.829 
07:05	64.2	64.2	64.2	86	59.9	1	3	90	0.00	29.831 
07:10	64.3	64.3	64.3	86	60.0	0	2	90	0.00	29.829 
07:15	64.5	64.5	64.5	86	60.2	0	3	90	0.00	29.829 
07:20	64.5	64.5	64.5	86	60.2	1	4	90	0.00	29.828 
07:25	64.5	64.5	64.5	85	59.9	1	3	90	0.00	29.828 
07:30	64.7	64.7	64.7	85	60.1	1	4	112	0.00	29.822 
07:35	65.2	65.2	65.2	85	60.6	0	0	---	0.00	29.825 
07:40	65.3	65.3	65.3	84	60.3	0	1	112	0.00	29.820 
07:45	65.6	65.6	65.6	84	60.6	0	1	112	0.00	29.822 
07:50	65.8	65.8	65.8	83	60.5	1	2	112	0.00	29.824 
07:55	65.8	65.8	65.8	82	60.1	1	3	112	0.00	29.827 
08:00	66.0	66.0	66.0	82	60.3	0	3	112	0.00	29.827 
08:05	66.3	66.3	66.3	81	60.3	1	3	112	0.00	29.830 
08:10	66.4	66.4	66.4	80	60.0	0	1	112	0.00	29.828 
08:15	66.6	66.6	66.6	80	60.2	1	4	112	0.00	29.827 
08:20	66.8	66.8	66.8	80	60.4	0	3	112	0.00	29.829 
08:25	66.9	66.9	66.9	79	60.2	1	3	112	0.00	29.828 
08:30	67.3	67.3	67.3	79	60.6	1	2	112	0.00	29.830 
08:35	67.3	67.3	67.3	78	60.2	2	5	90	0.00	29.832 
08:40	67.3	67.3	67.3	78	60.2	0	2	90	0.00	29.834 
08:45	67.6	67.6	67.6	79	60.8	0	2	90	0.00	29.833 
08:50	68.3	68.3	68.3	76	60.4	1	4	90	0.00	29.833 
08:55	68.6	68.6	68.6	75	60.3	0	2	90	0.00	29.836 
09:00	69.1	69.1	69.1	74	60.5	0	1	90	0.00	29.843 
09:05	69.3	69.3	69.3	74	60.6	0	2	90	0.00	29.847 
09:10	69.3	69.3	69.3	73	60.3	0	1	90	0.00	29.848 
09:15	69.3	69.3	69.3	74	60.6	0	3	90	0.00	29.848 
09:20	69.4	69.4	69.4	74	60.7	0	0	---	0.00	29.848 
09:25	69.4	69.4	69.4	73	60.4	0	2	90	0.00	29.853 
09:30	69.4	69.4	69.4	74	60.7	0	1	90	0.00	29.853 
09:35	69.3	69.3	69.3	74	60.6	0	0	---	0.00	29.853 
09:40	69.4	69.4	69.4	74	60.7	0	0	---	0.00	29.853 
09:45	69.6	69.6	69.6	74	60.9	0	3	90	0.00	29.849 
09:50	69.8	69.8	69.8	73	60.7	0	2	90	0.00	29.845 
09:55	69.8	69.8	69.8	74	61.1	1	3	90	0.00	29.843 
10:00	70.1	70.1	70.1	74	61.4	1	2	90	0.00	29.843 
10:05	70.9	70.9	70.9	72	61.4	0	1	135	0.00	29.845 
10:10	71.6	71.6	71.6	69	60.9	1	3	90	0.00	29.842 
10:15	72.3	72.3	72.3	67	60.7	1	3	90	0.00	29.841 
10:20	72.3	72.3	72.3	68	61.1	0	2	90	0.00	29.841 
10:25	72.7	72.7	72.7	67	61.1	0	2	90	0.00	29.844 
10:30	72.7	72.7	72.7	67	61.1	1	2	90	0.00	29.847 
10:35	72.5	72.5	72.5	68	61.3	0	2	68	0.00	29.848 
10:40	72.8	72.8	72.8	67	61.2	0	2	68	0.00	29.846 
10:45	73.3	73.3	73.3	66	61.2	0	1	68	0.00	29.848 
10:50	73.2	73.2	73.2	67	61.6	0	2	292	0.00	29.845 
10:55	73.2	73.2	73.2	67	61.6	0	3	292	0.00	29.844 
11:00	73.5	73.5	73.5	68	62.3	0	1	292	0.00	29.843 
11:05	74.2	74.2	74.2	66	62.1	1	2	292	0.00	29.844 
11:10	74.7	74.7	74.7	63	61.2	1	3	292	0.00	29.841 
11:15	75.1	75.1	77.1	65	62.5	1	3	22	0.00	29.838 
11:20	75.3	75.3	77.4	63	61.8	1	2	292	0.00	29.834 
11:25	76.0	76.0	77.9	64	62.9	0	1	292	0.00	29.829 
11:30	76.8	76.8	78.6	61	62.3	0	2	292	0.00	29.830 
11:35	77.2	77.2	78.9	59	61.7	1	3	22	0.00	29.831 
11:40	77.4	77.4	79.1	59	61.9	1	2	22	0.00	29.832 
11:45	77.4	77.4	79.1	59	61.9	1	2	22	0.00	29.830 
11:50	77.9	77.9	79.6	60	62.9	0	2	0	0.00	29.827 
11:55	78.5	78.5	80.0	58	62.5	1	3	338	0.00	29.827 
12:00	79.0	79.0	80.5	58	62.9	0	3	338	0.00	29.826 
12:05	79.4	79.4	80.8	56	62.3	1	3	315	0.00	29.824 
12:10	79.4	79.4	80.8	56	62.3	0	2	315	0.00	29.826 
12:15	79.6	79.6	80.9	55	62.0	1	3	338	0.00	29.824 
12:20	79.6	79.6	80.9	55	62.0	0	2	292	0.00	29.825 
12:25	79.2	79.2	80.6	56	62.1	1	3	292	0.00	29.826 
12:30	79.2	79.2	80.7	57	62.6	1	3	270	0.00	29.824 
12:35	79.2	79.2	80.7	57	62.6	0	1	270	0.00	29.821 
12:40	79.4	79.4	80.9	58	63.3	0	1	270	0.00	29.821 
12:45	80.3	80.3	81.6	55	62.6	0	2	270	0.00	29.815 
12:50	81.1	81.1	82.3	54	62.9	1	2	270	0.00	29.815 
12:55	81.4	81.4	82.7	54	63.1	1	3	270	0.00	29.809 
13:00	81.8	81.8	83.0	53	63.0	1	2	0	0.00	29.806 
13:05	81.6	81.6	82.6	52	62.2	0	3	292	0.00	29.804 
13:10	80.9	80.9	82.1	54	62.7	1	3	292	0.00	29.803 
13:15	80.9	80.9	82.0	53	62.1	0	2	292	0.00	29.800 
13:20	80.9	80.9	82.0	53	62.1	0	1	292	0.00	29.798 
13:25	81.2	81.2	82.2	52	61.9	1	2	292	0.00	29.798 
13:30	81.8	81.8	83.0	53	63.0	0	2	292	0.00	29.798 
13:35	82.4	82.4	83.4	51	62.4	1	5	90	0.00	29.796 
13:40	82.6	82.6	83.4	50	62.0	1	3	68	0.00	29.795 
13:45	82.8	82.8	83.7	50	62.2	1	4	68	0.00	29.793 
13:50	83.2	83.2	84.3	51	63.2	1	3	112	0.00	29.792 
13:55	83.6	83.6	84.6	50	63.0	1	4	248	0.00	29.790 
14:00	84.1	84.1	85.3	50	63.4	1	2	45	0.00	29.789 
14:05	84.3	84.3	85.3	49	63.0	1	3	270	0.00	29.787 
14:10	84.1	84.1	84.8	48	62.3	1	4	90	0.00	29.782 
14:15	83.6	83.6	84.6	50	63.0	1	4	90	0.00	29.778 
14:20	83.2	83.2	84.0	49	62.0	1	3	90	0.00	29.777 
14:25	83.0	83.0	84.1	51	63.0	1	4	248	0.00	29.775 
14:30	83.4	83.4	84.4	50	62.8	1	3	248	0.00	29.774 
14:35	83.4	83.4	84.2	49	62.2	0	2	248	0.00	29.769 
14:40	83.4	83.4	84.2	49	62.2	1	3	292	0.00	29.766 
14:45	83.6	83.6	84.4	49	62.4	0	2	292	0.00	29.760 
14:50	84.1	84.1	85.0	49	62.8	1	3	338	0.00	29.759 
14:55	84.3	84.3	84.7	46	61.2	1	4	90	0.00	29.758 
15:00	84.1	84.1	84.6	47	61.7	1	3	68	0.00	29.758 
15:05	83.6	83.6	84.1	47	61.2	1	3	270	0.00	29.763 
15:10	83.2	83.2	83.8	48	61.4	1	4	270	0.00	29.768 
15:15	82.8	82.8	83.5	49	61.7	1	3	68	0.00	29.765 
15:20	82.6	82.6	83.4	50	62.0	0	1	270	0.00	29.767 
15:25	82.6	82.6	83.4	50	62.0	1	3	248	0.00	29.765 
15:30	82.8	82.8	83.7	50	62.2	1	4	248	0.00	29.769 
15:35	83.2	83.2	84.3	51	63.2	1	3	248	0.00	29.769 
15:40	83.6	83.6	84.4	49	62.4	1	3	248	0.00	29.770 
15:45	83.8	83.8	84.7	49	62.6	1	3	248	0.00	29.769 
15:50	84.0	84.0	84.9	49	62.8	1	3	248	0.00	29.767 
15:55	84.0	84.0	85.1	50	63.3	1	3	248	0.00	29.765 
16:00	83.8	83.8	84.5	48	62.0	1	3	248	0.00	29.767 
16:05	83.6	83.6	84.6	50	63.0	0	1	248	0.00	29.770 
16:10	83.2	83.2	84.3	51	63.2	1	3	248	0.00	29.773 
16:15	82.6	82.6	83.4	50	62.0	1	3	248	0.00	29.775 
16:20	82.4	82.4	83.5	52	63.0	1	3	248	0.00	29.777 
16:25	82.4	82.4	83.7	53	63.5	0	2	248	0.00	29.777 
16:30	82.4	82.4	83.5	52	63.0	0	2	248	0.00	29.777 
16:35	82.4	82.4	83.5	52	63.0	1	2	248	0.00	29.778 
16:40	82.2	82.2	83.5	53	63.3	0	2	315	0.00	29.778 
16:45	81.8	81.8	83.2	54	63.5	1	2	315	0.00	29.779 
16:50	81.4	81.4	82.7	54	63.1	0	2	315	0.00	29.779 
16:55	81.2	81.2	82.6	55	63.5	0	2	315	0.00	29.777 
17:00	81.2	81.2	82.5	54	62.9	0	2	315	0.00	29.777 
17:05	81.2	81.2	82.6	55	63.5	0	1	315	0.00	29.777 
17:10	81.1	81.1	82.5	55	63.4	0	1	315	0.00	29.777 
17:15	81.1	81.1	82.6	56	63.9	0	1	315	0.00	29.777 
17:20	81.1	81.1	82.6	56	63.9	0	2	315	0.00	29.777 
17:25	81.1	81.1	82.6	56	63.9	0	1	315	0.00	29.776 
17:30	81.1	81.1	82.6	56	63.9	0	1	315	0.00	29.776 
17:35	81.1	81.1	82.6	56	63.9	0	1	315	0.00	29.774 
17:40	81.2	81.2	82.6	55	63.5	0	1	315	0.00	29.777 
17:45	81.2	81.2	82.7	56	64.0	0	3	315	0.00	29.777 
17:50	81.1	81.1	82.5	55	63.4	0	2	315	0.00	29.777 
17:55	81.1	81.1	82.3	54	62.9	1	3	315	0.00	29.776 
18:00	80.9	80.9	82.3	55	63.2	0	2	315	0.00	29.773 
18:05	80.7	80.7	81.9	54	62.5	0	1	315	0.00	29.775 
18:10	80.7	80.7	82.0	55	63.0	0	1	315	0.00	29.773 
18:15	80.5	80.5	81.9	56	63.3	0	2	315	0.00	29.775 
18:20	80.3	80.3	81.7	56	63.1	0	1	315	0.00	29.774 
18:25	80.1	80.1	81.5	56	63.0	0	1	315	0.00	29.774 
18:30	79.9	79.9	81.4	57	63.3	0	0	---	0.00	29.774 
18:35	79.8	79.8	81.3	57	63.2	0	0	---	0.00	29.771 
18:40	79.6	79.6	81.2	58	63.5	0	1	315	0.00	29.772 
18:45	79.6	79.6	81.2	58	63.5	0	1	315	0.00	29.770 
18:50	79.4	79.4	80.9	58	63.3	0	0	---	0.00	29.771 
18:55	79.2	79.2	80.8	59	63.6	0	0	---	0.00	29.771 
19:00	79.0	79.0	80.6	59	63.4	0	0	---	0.00	29.770 
19:05	78.6	78.6	80.3	60	63.5	0	0	---	0.00	29.767 
19:10	78.5	78.5	80.2	61	63.9	0	0	---	0.00	29.766 
19:15	78.1	78.1	79.8	61	63.5	0	0	---	0.00	29.765 
19:20	77.7	77.7	79.4	62	63.6	0	0	---	0.00	29.766 
19:25	77.6	77.6	79.4	62	63.5	0	0	---	0.00	29.769 
19:30	77.0	77.0	78.8	63	63.4	0	0	---	0.00	29.770 
19:35	76.7	76.7	78.5	65	64.0	0	0	---	0.00	29.771 
19:40	76.3	76.3	78.1	65	63.6	0	0	---	0.00	29.769 
19:45	76.0	76.0	77.8	67	64.2	0	0	---	0.00	29.771 
19:50	75.6	75.6	77.4	68	64.3	0	0	---	0.00	29.772 
19:55	75.3	75.3	77.1	68	64.0	0	0	---	0.00	29.778 
20:00	74.9	74.9	74.9	69	64.0	0	0	---	0.00	29.779 
20:05	74.6	74.6	74.6	70	64.2	0	0	---	0.00	29.775 
20:10	74.4	74.4	74.4	71	64.4	0	0	---	0.00	29.775 
20:15	74.0	74.0	74.0	72	64.4	0	0	---	0.00	29.777 
20:20	73.7	73.7	73.7	73	64.5	0	0	---	0.00	29.777 
20:25	73.5	73.5	73.5	73	64.3	0	0	---	0.00	29.778 
20:30	73.2	73.2	73.2	74	64.4	0	0	---	0.00	29.776 
20:35	73.0	73.0	73.0	74	64.2	0	0	---	0.00	29.777 
20:40	72.8	72.8	72.8	75	64.4	0	0	---	0.00	29.778 
20:45	72.5	72.5	72.5	75	64.1	0	0	---	0.00	29.777 
20:50	72.3	72.3	72.3	77	64.7	0	0	---	0.00	29.780 
20:55	72.1	72.1	72.1	78	64.8	0	0	---	0.00	29.781 
21:00	72.0	72.0	72.0	79	65.1	0	0	---	0.00	29.783 
21:05	71.8	71.8	71.8	79	64.9	0	0	---	0.00	29.781 
21:10	71.6	71.6	71.6	80	65.1	0	0	---	0.00	29.781 
21:15	71.5	71.5	71.5	80	65.0	0	0	---	0.00	29.786 
21:20	71.3	71.3	71.3	81	65.2	0	0	---	0.00	29.786 
21:25	71.1	71.1	71.1	82	65.3	0	0	---	0.00	29.790 
21:30	70.9	70.9	70.9	82	65.1	0	0	---	0.00	29.793 
21:35	70.8	70.8	70.8	83	65.4	0	0	---	0.00	29.792 
21:40	70.8	70.8	70.8	83	65.4	0	0	---	0.00	29.792 
21:45	70.8	70.8	70.8	83	65.4	0	0	---	0.00	29.794 
21:50	70.6	70.6	70.6	83	65.2	0	0	---	0.00	29.795 
21:55	70.6	70.6	70.6	83	65.2	0	0	---	0.00	29.795 
22:00	70.4	70.4	70.4	83	65.0	0	0	---	0.00	29.795 
22:05	70.3	70.3	70.3	84	65.2	0	0	---	0.00	29.793 
22:10	70.3	70.3	70.3	84	65.2	0	1	315	0.00	29.792 
22:15	70.1	70.1	70.1	85	65.4	0	1	315	0.00	29.792 
22:20	70.1	70.1	70.1	85	65.4	0	0	---	0.00	29.797 
22:25	70.1	70.1	70.1	85	65.4	0	0	---	0.00	29.801 
22:30	70.1	70.1	70.1	85	65.4	0	0	---	0.00	29.801 
22:35	70.1	70.1	70.1	85	65.4	0	0	---	0.00	29.803 
22:40	70.1	70.1	70.1	85	65.4	0	0	---	0.00	29.798 
22:45	70.1	70.1	70.1	85	65.4	0	0	---	0.00	29.795 
22:50	70.1	70.1	70.1	85	65.4	0	0	---	0.00	29.795 
22:55	70.3	70.3	70.3	85	65.6	0	0	---	0.00	29.795 
23:00	70.3	70.3	70.3	84	65.2	0	0	---	0.00	29.795 
23:05	70.3	70.3	70.3	84	65.2	0	1	315	0.00	29.791 
23:10	70.3	70.3	70.3	84	65.2	0	0	---	0.00	29.794 
23:15	70.3	70.3	70.3	84	65.2	0	1	315	0.00	29.793 
23:20	70.3	70.3	70.3	83	64.9	0	1	315	0.00	29.793 
23:25	70.3	70.3	70.3	83	64.9	0	1	315	0.00	29.791 
23:30	70.3	70.3	70.3	83	64.9	0	0	---	0.00	29.788 
23:35	70.3	70.3	70.3	83	64.9	0	1	315	0.00	29.787 
23:40	70.3	70.3	70.3	82	64.5	0	1	315	0.00	29.788 
23:45	70.1	70.1	70.1	82	64.3	0	2	315	0.00	29.789 
23:50	70.3	70.3	70.3	81	64.2	0	2	0	0.00	29.788 
23:55	70.3	70.3	70.3	81	64.2	0	1	0	0.00	29.789 

CoCoRaHS
IN-AL-39
A2 Web Hosting
Creative Commons License
GoDaddy
Look for:

loaded 2017-12-10 21:24:28 • last modified 2010-11-18 10:43:29
Privacy PolicyDisclaimer
• wx.awcolley.com is powered by PmWiki v.2002016 •
• all content (unless otherwise noted) © 2017 A W Colley